Time;durP1;ratioP1;P1;durP2;ratioP2;P2;SDS_P1;SDS_P2;PMS_P1;PMS_P2;Temp;Humidity;BMP_temperature;BMP_pressure;BME280_temperature;BME280_humidity;BME280_pressure;Samples;Min_cycle;Max_cycle;Signal;HPM_P1;HPM_P2
2022/01/18 00:00:29;;;;;;;18.02;3.85;;;10.40;99.90;;;;;;4950992;28;20209;-86
2022/01/18 00:02:58;;;;;;;15.32;4.25;;;6.10;99.90;;;;;;4953337;28;20238;-86
2022/01/18 00:05:28;;;;;;;12.73;3.92;;;7.00;99.90;;;;;;4955707;28;20195;-87
2022/01/18 00:07:54;;;;;;;21.80;4.50;;;7.90;99.90;;;;;;4948448;28;20200;-86
2022/01/18 00:10:23;;;;;;;18.70;4.65;;;10.20;99.90;;;;;;4995741;23;20606;-87
2022/01/18 00:13:22;;;;;;;11.95;4.55;;;7.90;99.90;;;;;;4948906;29;20194;-87
2022/01/18 00:16:11;;;;;;;17.15;4.53;;;7.30;99.90;;;;;;4941578;28;20198;-87
2022/01/18 00:18:39;;;;;;;9.82;3.30;;;7.30;99.90;;;;;;4942355;28;20217;-86
2022/01/18 00:23:35;;;;;;;9.23;4.10;;;8.80;99.90;;;;;;4956670;28;20230;-88
2022/01/18 00:26:02;;;;;;;11.80;3.10;;;9.10;99.90;;;;;;4954059;28;20277;-86
2022/01/18 00:28:29;;;;;;;13.27;4.93;;;7.60;99.90;;;;;;4943224;29;20198;-87
2022/01/18 00:31:29;;;;;;;12.15;4.20;;;8.30;99.90;;;;;;4957752;28;20535;-87
2022/01/18 00:39:20;;;;;;;8.25;3.20;;;10.60;99.90;;;;;;4946326;28;20190;-88
2022/01/18 00:41:46;;;;;;;23.83;4.72;;;8.10;99.90;;;;;;4952152;28;20213;-87
2022/01/18 00:44:12;;;;;;;18.77;5.17;;;6.70;99.90;;;;;;4960611;28;20250;-86
2022/01/18 00:46:39;;;;;;;12.30;3.65;;;9.50;99.90;;;;;;4951298;28;20173;-86
2022/01/18 00:49:05;;;;;;;10.70;3.53;;;7.70;99.90;;;;;;4942654;28;20723;-87
2022/01/18 00:51:37;;;;;;;10.93;3.38;;;8.30;99.90;;;;;;4950087;28;20189;-87
2022/01/18 00:54:04;;;;;;;12.80;3.97;;;7.70;99.90;;;;;;4943301;28;20327;-86
2022/01/18 00:56:31;;;;;;;21.35;4.05;;;9.30;99.90;;;;;;4948390;28;20179;-85
2022/01/18 00:58:58;;;;;;;15.00;3.90;;;9.90;99.90;;;;;;4938420;28;20221;-87
2022/01/18 01:01:34;;;;;;;17.40;3.90;;;9.50;99.90;;;;;;4940611;28;20183;-86
2022/01/18 01:04:02;;;;;;;9.82;3.83;;;9.90;99.90;;;;;;4947256;28;20248;-87
2022/01/18 01:06:30;;;;;;;12.98;4.78;;;9.50;99.90;;;;;;4946629;28;20174;-87
2022/01/18 01:08:56;;;;;;;10.13;3.25;;;6.30;99.90;;;;;;4938804;28;20222;-86
2022/01/18 01:11:26;;;;;;;11.90;3.38;;;7.50;99.90;;;;;;4946985;28;20647;-86
2022/01/18 01:13:55;;;;;;;8.50;2.85;;;8.00;99.90;;;;;;4943281;28;20221;-86
2022/01/18 01:16:48;;;;;;;10.98;4.10;;;7.50;99.90;;;;;;4961578;28;20599;-86
2022/01/18 01:45:51;;;;;;;17.15;3.65;;;9.90;99.90;;;;;;4969158;28;20217;-87
2022/01/18 01:48:19;;;;;;;22.65;4.47;;;7.30;99.90;;;;;;4955253;28;20264;-86
2022/01/18 01:50:49;;;;;;;13.40;3.65;;;8.40;99.90;;;;;;4964530;28;20194;-86
2022/01/18 01:53:17;;;;;;;11.02;3.55;;;10.10;99.90;;;;;;4957212;28;20194;-87
2022/01/18 01:55:43;;;;;;;10.00;3.78;;;6.80;99.90;;;;;;4939798;29;20286;-87
2022/01/18 01:58:09;;;;;;;19.98;3.72;;;7.60;99.90;;;;;;4946335;28;20210;-86
2022/01/18 02:00:43;;;;;;;7.20;2.40;;;7.40;99.90;;;;;;4946583;28;20672;-86
2022/01/18 02:03:08;;;;;;;10.95;3.83;;;7.60;99.90;;;;;;4964465;28;20210;-86
2022/01/18 02:05:34;;;;;;;11.63;4.37;;;9.90;99.90;;;;;;4975969;28;20193;-86
2022/01/18 02:08:00;;;;;;;20.93;4.33;;;7.80;99.90;;;;;;4958398;28;20244;-87
2022/01/18 02:10:25;;;;;;;16.10;4.47;;;7.50;99.90;;;;;;4955539;28;20704;-86
2022/01/18 02:12:51;;;;;;;11.87;3.40;;;7.60;99.90;;;;;;4963828;28;20193;-86
2022/01/18 02:15:19;;;;;;;12.40;3.10;;;10.00;99.90;;;;;;4948538;28;20201;-86
2022/01/18 02:23:27;;;;;;;16.30;3.47;;;7.70;99.90;;;;;;4968786;28;20715;-87
2022/01/18 02:25:54;;;;;;;11.30;4.25;;;7.60;99.90;;;;;;4961729;28;20199;-88
2022/01/18 02:28:22;;;;;;;16.13;3.70;;;8.20;99.90;;;;;;4940683;28;20190;-90
2022/01/18 02:30:49;;;;;;;6.53;3.60;;;7.50;99.90;;;;;;4947700;28;20209;-87
2022/01/18 02:33:16;;;;;;;15.95;3.97;;;7.50;99.90;;;;;;4960662;28;20290;-89
2022/01/18 02:35:44;;;;;;;9.27;4.65;;;7.30;99.90;;;;;;4946548;28;20206;-88
2022/01/18 02:38:09;;;;;;;12.77;3.72;;;7.80;99.90;;;;;;4953879;28;20191;-87
2022/01/18 02:40:38;;;;;;;15.57;3.20;;;7.70;99.90;;;;;;4955697;28;20264;-87
2022/01/18 02:45:51;;;;;;;9.50;3.00;;;10.30;99.90;;;;;;4955598;28;20213;-87
2022/01/18 02:48:18;;;;;;;15.30;3.63;;;7.40;99.90;;;;;;4945473;28;20192;-87
2022/01/18 02:50:44;;;;;;;20.20;5.07;;;10.10;99.90;;;;;;4941193;28;20603;-87
2022/01/18 02:53:12;;;;;;;18.43;4.10;;;9.50;99.90;;;;;;4956649;28;20187;-87
2022/01/18 02:55:38;;;;;;;11.57;4.22;;;7.40;99.90;;;;;;4941959;28;20819;-87
2022/01/18 02:58:09;;;;;;;14.43;4.85;;;9.30;99.90;;;;;;4953495;28;20212;-87
2022/01/18 03:03:24;;;;;;;11.48;4.38;;;8.30;99.90;;;;;;4957644;28;20225;-87
2022/01/18 03:05:50;;;;;;;18.00;4.47;;;9.50;99.90;;;;;;4963156;28;20214;-87
2022/01/18 03:08:17;;;;;;;9.93;4.30;;;6.20;99.90;;;;;;4954104;28;20229;-87
2022/01/18 03:10:43;;;;;;;13.43;4.63;;;8.20;99.90;;;;;;4953485;28;20476;-87
2022/01/18 03:13:09;;;;;;;18.90;5.73;;;6.40;99.90;;;;;;4949424;28;20611;-87
2022/01/18 03:15:37;;;;;;;14.43;5.90;;;8.50;99.90;;;;;;4938939;28;20744;-87
2022/01/18 03:18:06;;;;;;;19.98;5.75;;;7.30;99.90;;;;;;4941856;29;20199;-87
2022/01/18 03:20:33;;;;;;;15.85;5.10;;;9.40;99.90;;;;;;4952141;28;20240;-87
2022/01/18 03:22:59;;;;;;;15.13;4.70;;;8.80;99.90;;;;;;4944934;28;20210;-88
2022/01/18 03:28:04;;;;;;;17.48;4.85;;;7.80;99.90;;;;;;4963908;28;20192;-87
2022/01/18 03:30:31;;;;;;;10.90;4.28;;;8.20;99.90;;;;;;4960926;28;20202;-87
2022/01/18 03:32:57;;;;;;;16.00;5.13;;;10.10;99.90;;;;;;4954031;28;20195;-88
2022/01/18 03:35:25;;;;;;;28.17;6.07;;;7.00;99.90;;;;;;4936209;29;20643;-88
2022/01/18 03:37:51;;;;;;;6.85;3.40;;;8.40;99.90;;;;;;4967612;28;20218;-85
2022/01/18 03:40:22;;;;;;;17.15;5.35;;;9.80;99.90;;;;;;4960143;28;20210;-86
2022/01/18 03:42:50;;;;;;;17.92;4.78;;;7.20;99.90;;;;;;4958475;28;20218;-86
2022/01/18 03:45:24;;;;;;;11.45;4.15;;;9.60;99.90;;;;;;4956837;28;20277;-86
2022/01/18 03:47:50;;;;;;;15.68;5.72;;;7.50;99.90;;;;;;4970163;28;20250;-87
2022/01/18 03:50:16;;;;;;;12.70;4.78;;;9.10;99.90;;;;;;4972265;28;20252;-81
2022/01/18 03:52:44;;;;;;;11.00;3.50;;;7.50;99.90;;;;;;4949808;29;20217;-86
2022/01/18 03:55:14;;;;;;;14.68;4.13;;;6.50;99.90;;;;;;4940564;28;20206;-87
2022/01/18 03:57:40;;;;;;;18.42;3.95;;;9.30;99.90;;;;;;4965812;28;20371;-87
2022/01/18 04:00:09;;;;;;;13.47;4.20;;;9.30;99.90;;;;;;4953091;28;20295;-89
2022/01/18 04:02:37;;;;;;;14.60;3.83;;;7.90;99.90;;;;;;4947785;29;20297;-87
2022/01/18 04:05:06;;;;;;;6.93;3.60;;;9.70;99.90;;;;;;4963357;28;20204;-87
2022/01/18 04:07:32;;;;;;;20.27;5.90;;;7.30;99.90;;;;;;4946237;28;20225;-89
2022/01/18 04:09:58;;;;;;;15.17;4.40;;;7.20;99.90;;;;;;4943056;28;20316;-87
2022/01/18 04:12:24;;;;;;;13.27;4.63;;;;;;;;;;4951921;28;20187;-87
2022/01/18 04:14:49;;;;;;;7.97;4.13;;;7.00;99.90;;;;;;4949181;28;20484;-87
2022/01/18 04:30:47;;;;;;;11.32;5.00;;;8.80;99.90;;;;;;4967326;28;20201;-86
2022/01/18 04:33:13;;;;;;;18.10;5.47;;;7.10;99.90;;;;;;4946027;28;20559;-86
2022/01/18 04:35:39;;;;;;;18.70;6.67;;;7.10;99.90;;;;;;4949509;28;20234;-85
2022/01/18 04:38:04;;;;;;;14.30;5.37;;;7.00;99.90;;;;;;4961464;28;20226;-80
2022/01/18 04:40:32;;;;;;;19.70;5.70;;;7.20;99.90;;;;;;4965654;28;20245;-86
2022/01/18 04:43:05;;;;;;;16.85;6.28;;;8.70;99.90;;;;;;4950678;28;20225;-87
2022/01/18 04:48:27;;;;;;;8.98;4.45;;;7.20;99.90;;;;;;4961135;28;20205;-86
2022/01/18 04:50:58;;;;;;;15.27;5.25;;;7.30;99.90;;;;;;4961916;28;20681;-85
2022/01/18 04:53:23;;;;;;;11.73;4.88;;;7.10;99.90;;;;;;4941859;28;20182;-85
2022/01/18 04:55:54;;;;;;;13.10;6.73;;;7.00;99.90;;;;;;4953970;28;20344;-86
2022/01/18 04:58:21;;;;;;;13.93;5.68;;;6.80;99.90;;;;;;4953129;28;20188;-86
2022/01/18 05:00:50;;;;;;;14.75;5.03;;;6.90;99.90;;;;;;4956660;28;20234;-86
2022/01/18 05:03:16;;;;;;;11.90;4.80;;;6.90;99.90;;;;;;4940999;28;20308;-86
2022/01/18 05:05:41;;;;;;;10.67;4.10;;;7.30;99.90;;;;;;4937840;28;20645;-85
2022/01/18 05:08:13;;;;;;;10.33;4.50;;;8.80;99.90;;;;;;4955715;28;20270;-77
2022/01/18 05:10:38;;;;;;;13.50;5.00;;;7.20;99.90;;;;;;4973382;28;21268;-85
2022/01/18 05:13:14;;;;;;;14.80;5.20;;;8.70;99.90;;;;;;4955973;28;20251;-85
2022/01/18 05:15:50;;;;;;;15.60;4.45;;;6.80;99.90;;;;;;4963171;28;20443;-86
2022/01/18 05:23:59;;;;;;;22.15;6.07;;;4.80;99.90;;;;;;4930751;28;20237;-86
2022/01/18 05:26:26;;;;;;;18.08;6.35;;;7.90;99.90;;;;;;4956828;28;20406;-86
2022/01/18 05:28:52;;;;;;;16.75;6.35;;;8.00;99.90;;;;;;4936957;29;20277;-86
2022/01/18 05:31:18;;;;;;;16.07;6.27;;;7.60;99.90;;;;;;4959919;28;20623;-86
2022/01/18 05:33:46;;;;;;;12.60;5.13;;;;;;;;;;4951992;28;20647;-86
2022/01/18 05:36:12;;;;;;;17.30;6.68;;;7.20;99.90;;;;;;4955550;28;20203;-87
2022/01/18 05:38:38;;;;;;;19.83;7.30;;;7.20;99.90;;;;;;4943515;28;20629;-87
2022/01/18 05:41:06;;;;;;;18.35;7.05;;;7.10;99.90;;;;;;4936991;28;20448;-86
2022/01/18 05:43:35;;;;;;;18.60;7.53;;;7.30;99.90;;;;;;4948559;28;20229;-85
2022/01/18 05:46:01;;;;;;;19.05;6.85;;;7.30;99.90;;;;;;4962703;28;20190;-87
2022/01/18 05:48:27;;;;;;;24.27;7.40;;;7.20;99.90;;;;;;4962201;28;20272;-86
2022/01/18 05:50:59;;;;;;;13.23;6.80;;;8.70;99.90;;;;;;4943605;29;20221;-85
2022/01/18 05:56:24;;;;;;;18.70;7.82;;;7.10;99.90;;;;;;4962357;28;20276;-84
2022/01/18 05:58:51;;;;;;;22.30;7.93;;;6.00;99.90;;;;;;4951660;28;20597;-86
2022/01/18 06:01:25;;;;;;;16.92;8.00;;;7.10;99.90;;;;;;4950359;28;20198;-85
2022/01/18 06:04:07;;;;;;;18.20;7.75;;;7.20;99.90;;;;;;4935958;29;20225;-84
2022/01/18 06:06:53;;;;;;;19.75;7.78;;;7.20;99.90;;;;;;4959473;28;20190;-80
2022/01/18 06:09:20;;;;;;;18.05;7.05;;;7.20;99.90;;;;;;4990244;23;20291;-91
2022/01/18 06:11:46;;;;;;;21.38;7.95;;;7.20;99.90;;;;;;4971194;28;20233;-90
2022/01/18 06:14:12;;;;;;;13.03;7.13;;;7.00;99.90;;;;;;4956584;28;20793;-90
2022/01/18 06:16:37;;;;;;;9.37;6.70;;;10.60;99.90;;;;;;4959346;28;20437;-90
2022/01/18 06:19:03;;;;;;;18.37;7.50;;;7.40;99.90;;;;;;4957549;28;20472;-90
2022/01/18 06:21:29;;;;;;;16.97;6.60;;;7.30;99.90;;;;;;4972916;28;20812;-90
2022/01/18 06:23:54;;;;;;;23.20;8.57;;;6.20;99.90;;;;;;4972549;28;20965;-91
2022/01/18 06:26:20;;;;;;;25.83;9.77;;;7.30;99.90;;;;;;4989142;28;20174;-90
2022/01/18 06:28:48;;;;;;;28.53;9.53;;;6.00;99.90;;;;;;4956471;28;20237;-89
2022/01/18 06:31:14;;;;;;;19.95;9.65;;;7.20;99.90;;;;;;4981420;28;20189;-90
2022/01/18 06:33:40;;;;;;;19.95;9.25;;;8.10;99.90;;;;;;4957329;28;20209;-91
2022/01/18 06:36:06;;;;;;;17.30;8.10;;;6.90;99.90;;;;;;4979669;28;20197;-89
2022/01/18 06:38:31;;;;;;;19.73;8.67;;;7.10;99.90;;;;;;4976493;28;20205;-91
2022/01/18 06:40:57;;;;;;;24.80;9.70;;;6.70;99.90;;;;;;4977147;28;20257;-89
2022/01/18 06:43:22;;;;;;;18.60;8.90;;;7.10;99.90;;;;;;4956997;28;20241;-88
2022/01/18 06:45:49;;;;;;;29.57;9.83;;;;;;;;;;4989770;28;20248;-90
2022/01/18 06:48:24;;;;;;;17.73;8.68;;;7.10;99.90;;;;;;4970444;28;20188;-90
2022/01/18 06:50:50;;;;;;;22.57;9.43;;;8.90;99.90;;;;;;4957797;28;20227;-91
2022/01/18 06:53:16;;;;;;;13.83;7.20;;;;;;;;;;4958142;28;20190;-92
2022/01/18 06:55:43;;;;;;;160.30;78.28;;;7.00;99.90;;;;;;4988404;28;20197;-91
2022/01/18 06:58:09;;;;;;;18.30;7.47;;;9.10;99.90;;;;;;4263387;28;10000727;-91
2022/01/18 07:00:35;;;;;;;23.07;9.23;;;;;;;;;;4953503;28;20240;-89
2022/01/18 07:03:00;;;;;;;28.03;10.70;;;7.00;99.90;;;;;;4950996;28;20229;-91
2022/01/18 07:05:26;;;;;;;16.30;8.70;;;;;;;;;;4975965;28;20510;-89
2022/01/18 07:07:52;;;;;;;25.02;11.85;;;7.10;99.90;;;;;;4964593;28;20205;-88
2022/01/18 07:10:17;;;;;;;26.27;10.10;;;8.70;99.90;;;;;;4957013;28;20221;-89
2022/01/18 07:12:43;;;;;;;18.77;9.43;;;6.80;99.90;;;;;;4954063;28;20197;-90
2022/01/18 07:15:09;;;;;;;21.03;9.67;;;7.00;99.90;;;;;;4973502;28;20245;-87
2022/01/18 07:17:36;;;;;;;23.17;10.25;;;7.10;99.90;;;;;;4955189;28;20202;-89
2022/01/18 07:20:03;;;;;;;22.00;10.15;;;6.90;99.90;;;;;;4971341;28;20280;-88
2022/01/18 07:22:29;;;;;;;31.13;10.80;;;7.40;99.90;;;;;;4974959;28;20583;-89
2022/01/18 07:24:57;;;;;;;21.50;11.30;;;8.90;99.90;;;;;;4949585;29;20202;-89
2022/01/18 07:27:25;;;;;;;22.08;11.70;;;6.30;99.90;;;;;;4955740;28;20229;-89
2022/01/18 07:29:56;;;;;;;32.45;14.00;;;6.20;99.90;;;;;;4977731;28;20205;-90
2022/01/18 07:32:21;;;;;;;28.58;12.63;;;7.10;99.90;;;;;;4960172;28;20193;-87
2022/01/18 07:34:57;;;;;;;28.33;13.00;;;;;;;;;;4947338;28;20697;-89
2022/01/18 07:37:23;;;;;;;20.25;11.80;;;7.10;99.90;;;;;;4956847;28;20178;-89
2022/01/18 07:39:51;;;;;;;30.63;14.07;;;7.50;99.90;;;;;;4961133;28;20216;-90
2022/01/18 07:42:19;;;;;;;25.20;12.40;;;5.20;99.90;;;;;;4991429;28;20177;-91
2022/01/18 07:44:46;;;;;;;24.08;12.30;;;7.30;99.90;;;;;;4992044;28;20220;-92
2022/01/18 07:47:12;;;;;;;21.85;11.45;;;7.40;99.90;;;;;;4972619;28;20178;-88
2022/01/18 07:49:48;;;;;;;27.50;13.03;;;8.00;99.90;;;;;;4987158;28;20200;-89
2022/01/18 07:52:13;;;;;;;31.70;13.70;;;7.10;99.90;;;;;;4964443;28;20170;-92
2022/01/18 07:54:39;;;;;;;35.27;12.90;;;7.00;99.90;;;;;;4966223;28;20217;-91
2022/01/18 07:57:05;;;;;;;33.30;13.50;;;6.80;99.90;;;;;;4959525;28;20186;-91
2022/01/18 07:59:31;;;;;;;34.70;14.37;;;;;;;;;;4965123;28;20699;-91
2022/01/18 08:01:57;;;;;;;26.48;15.20;;;7.30;99.90;;;;;;4989721;28;20192;-91
2022/01/18 08:04:24;;;;;;;24.90;12.60;;;7.40;99.90;;;;;;4973313;28;20210;-92
2022/01/18 08:06:50;;;;;;;24.25;14.18;;;11.60;99.90;;;;;;4957815;28;20186;-91
2022/01/18 08:09:19;;;;;;;28.30;11.90;;;;;;;;;;4954266;28;20212;-89
2022/01/18 08:11:46;;;;;;;18.70;12.67;;;7.70;99.90;;;;;;4955189;28;20232;-90
2022/01/18 08:14:13;;;;;;;24.58;11.85;;;6.90;99.90;;;;;;4954862;28;20505;-91
2022/01/18 08:19:13;;;;;;;23.27;12.43;;;6.90;99.90;;;;;;4970217;28;20711;-91
2022/01/18 08:21:39;;;;;;;23.10;14.87;;;;;;;;;;4956373;28;20404;-92
2022/01/18 08:24:04;;;;;;;23.50;12.00;;;7.70;99.90;;;;;;4976223;28;20217;-90
2022/01/18 08:26:30;;;;;;;28.87;15.80;;;6.90;99.90;;;;;;4990396;28;20173;-90
2022/01/18 08:28:56;;;;;;;30.83;13.73;;;10.40;99.90;;;;;;4973580;28;20288;-88
2022/01/18 08:31:21;;;;;;;27.63;12.37;;;11.30;99.90;;;;;;4992573;28;20173;-90
2022/01/18 08:33:50;;;;;;;25.03;12.97;;;7.80;99.90;;;;;;4993654;28;20245;-92
2022/01/18 08:36:15;;;;;;;34.03;15.45;;;8.70;99.90;;;;;;4954772;28;20189;-89
2022/01/18 08:38:41;;;;;;;25.00;15.80;;;8.80;99.90;;;;;;4944200;28;20209;-89
2022/01/18 08:41:08;;;;;;;28.87;13.97;;;10.30;99.90;;;;;;4950778;28;20186;-90
2022/01/18 08:43:38;;;;;;;24.98;13.13;;;6.80;99.90;;;;;;4972802;28;20218;-90
2022/01/18 08:46:04;;;;;;;29.52;13.70;;;9.60;99.90;;;;;;4947245;28;20663;-91
2022/01/18 08:48:32;;;;;;;23.10;12.10;;;7.10;99.90;;;;;;4952224;28;20189;-88
2022/01/18 08:50:58;;;;;;;24.55;13.40;;;8.10;99.90;;;;;;4957918;28;20538;-90
2022/01/18 08:54:03;;;;;;;23.33;14.00;;;7.70;99.90;;;;;;4959656;28;20175;-89
2022/01/18 08:57:04;;;;;;;20.67;12.65;;;7.60;99.90;;;;;;4975090;28;20190;-89
2022/01/18 08:59:30;;;;;;;28.45;12.20;;;8.20;99.90;;;;;;4945313;28;20274;-90
2022/01/18 09:02:36;;;;;;;20.10;11.25;;;7.20;99.90;;;;;;4944104;28;20193;-90
2022/01/18 09:06:04;;;;;;;23.83;11.88;;;8.20;99.90;;;;;;4968114;28;20243;-90
2022/01/18 09:09:27;;;;;;;24.70;12.20;;;8.20;99.90;;;;;;4990473;28;20264;-89
2022/01/18 09:12:53;;;;;;;30.30;10.80;;;8.30;99.90;;;;;;4951834;29;20186;-90
2022/01/18 09:16:21;;;;;;;22.92;10.25;;;7.60;99.90;;;;;;4950563;29;20561;-89
2022/01/18 09:19:47;;;;;;;19.77;12.25;;;10.90;99.90;;;;;;4952739;28;20178;-90
2022/01/18 09:23:12;;;;;;;24.15;11.93;;;10.80;99.90;;;;;;4992176;28;20192;-89
2022/01/18 09:26:37;;;;;;;23.27;13.25;;;11.00;99.90;;;;;;4990296;28;20196;-90
2022/01/18 09:30:15;;;;;;;27.13;11.70;;;7.30;99.90;;;;;;4994057;28;20569;-89
2022/01/18 09:33:42;;;;;;;24.77;12.30;;;8.80;99.90;;;;;;4952705;29;20680;-89
2022/01/18 09:37:07;;;;;;;25.00;13.02;;;8.50;99.90;;;;;;4984598;28;20851;-88
2022/01/18 09:40:36;;;;;;;30.15;12.52;;;8.60;99.90;;;;;;4991621;28;20652;-90
2022/01/18 09:43:59;;;;;;;21.98;13.82;;;11.30;99.90;;;;;;4991001;28;20252;-89
2022/01/18 09:47:24;;;;;;;33.13;14.10;;;9.50;99.90;;;;;;4994836;28;20659;-88
2022/01/18 09:50:51;;;;;;;33.47;15.77;;;8.90;99.90;;;;;;4619202;28;10000534;-90
2022/01/18 09:54:19;;;;;;;39.25;16.77;;;9.40;99.90;;;;;;4962529;28;20182;-90
2022/01/18 09:57:46;;;;;;;33.75;16.10;;;7.50;99.90;;;;;;4974388;28;20288;-89
2022/01/18 10:01:11;;;;;;;39.95;18.60;;;7.60;99.90;;;;;;4981408;28;20189;-90
2022/01/18 10:05:01;;;;;;;33.83;19.00;;;8.40;99.90;;;;;;4968798;28;20224;-90
2022/01/18 10:08:28;;;;;;;41.87;20.13;;;9.50;99.90;;;;;;4965663;28;20477;-88
2022/01/18 10:11:56;;;;;;;37.73;21.60;;;11.20;99.90;;;;;;4973163;28;20462;-90
2022/01/18 10:15:21;;;;;;;40.17;19.70;;;8.50;99.90;;;;;;4977791;28;21069;-88
2022/01/18 10:18:34;;;;;;;40.97;20.60;;;9.60;99.90;;;;;;4971624;28;20440;-89
2022/01/18 10:21:24;;;;;;;46.05;20.42;;;9.50;99.90;;;;;;4967402;28;20501;-90
2022/01/18 10:24:33;;;;;;;41.33;19.90;;;9.50;99.90;;;;;;4958014;28;20220;-90
2022/01/18 10:27:58;;;;;;;38.88;20.67;;;10.00;99.90;;;;;;4953362;28;20185;-90
2022/01/18 10:31:23;;;;;;;43.30;20.08;;;11.60;99.90;;;;;;4969331;28;20186;-90
2022/01/18 10:37:57;;;;;;;39.95;19.73;;;12.50;99.90;;;;;;4967823;28;20268;-90
2022/01/18 10:41:32;;;;;;;43.95;21.30;;;13.60;99.90;;;;;;4972034;28;20589;-89
2022/01/18 10:44:38;;;;;;;39.75;21.58;;;;;;;;;;4992933;28;20208;-90
2022/01/18 10:47:49;;;;;;;42.80;21.55;;;9.90;99.90;;;;;;4973771;28;20181;-90
2022/01/18 10:51:17;;;;;;;40.35;19.65;;;9.70;99.90;;;;;;4977026;28;20202;-90
2022/01/18 10:54:40;;;;;;;40.20;20.55;;;10.50;99.90;;;;;;4970016;28;20668;-89
2022/01/18 10:58:10;;;;;;;42.30;21.95;;;9.10;99.90;;;;;;4968531;29;20512;-88
2022/01/18 11:20:56;;;;;;;33.97;16.53;;;11.30;99.90;;;;;;5004429;28;20361;-87
2022/01/18 11:24:21;;;;;;;37.93;17.27;;;11.10;99.90;;;;;;5005499;28;20476;-87
2022/01/18 11:27:51;;;;;;;27.30;16.90;;;10.70;99.90;;;;;;4635932;28;10001490;-89
2022/01/18 11:31:12;;;;;;;29.60;16.60;;;11.60;99.90;;;;;;5005703;28;20255;-89
2022/01/18 11:34:44;;;;;;;28.23;16.77;;;11.60;99.90;;;;;;5015593;28;20428;-90
2022/01/18 11:37:46;;;;;;;43.67;19.20;;;11.30;99.90;;;;;;5017630;28;20446;-89
2022/01/18 11:41:21;;;;;;;40.67;20.40;;;13.30;99.90;;;;;;5020803;28;20415;-90
2022/01/18 11:44:50;;;;;;;38.43;17.20;;;11.10;99.90;;;;;;5017137;28;21341;-89
2022/01/18 11:48:23;;;;;;;39.58;20.40;;;11.50;99.90;;;;;;5023623;28;20423;-87
2022/01/18 11:52:02;;;;;;;40.93;21.47;;;11.20;99.90;;;;;;5024167;28;20196;-87
2022/01/18 11:55:27;;;;;;;43.57;23.00;;;11.00;99.90;;;;;;5023585;28;20435;-92
2022/01/18 11:58:53;;;;;;;36.93;20.97;;;11.10;99.90;;;;;;5023013;28;20727;-90
2022/01/18 12:02:19;;;;;;;50.03;24.90;;;11.00;99.90;;;;;;5025684;28;20431;-90
2022/01/18 12:05:47;;;;;;;36.80;22.20;;;13.40;99.90;;;;;;5023866;28;20517;-89
2022/01/18 12:09:15;;;;;;;45.80;23.87;;;12.00;99.90;;;;;;5020510;28;20367;-91
2022/01/18 12:12:41;;;;;;;45.50;22.83;;;13.60;99.90;;;;;;5021363;28;20420;-89
2022/01/18 12:15:33;;;;;;;46.37;24.77;;;11.50;99.90;;;;;;5022931;28;20429;-84
2022/01/18 12:19:08;;;;;;;49.97;24.40;;;13.10;99.90;;;;;;5023249;28;20949;-91
2022/01/18 12:22:33;;;;;;;43.23;24.90;;;11.50;99.90;;;;;;5024821;28;20578;-91
2022/01/18 12:26:14;;;;;;;47.20;23.63;;;12.10;99.90;;;;;;5008036;28;20436;-91
2022/01/18 12:34:29;;;;;;;45.57;21.03;;;11.30;99.90;;;;;;4955155;28;20206;-82
2022/01/18 12:37:11;;;;;;;41.30;24.65;;;11.40;99.90;;;;;;4948340;29;20434;-81
2022/01/18 12:39:49;;;;;;;41.17;23.50;;;11.30;99.90;;;;;;4932665;29;20182;-81
2022/01/18 12:45:19;;;;;;;46.30;21.73;;;11.30;99.90;;;;;;4968716;28;20433;-82
2022/01/18 12:47:48;;;;;;;38.40;18.03;;;11.40;99.90;;;;;;4946180;28;20445;-83
2022/01/18 12:50:17;;;;;;;46.30;21.87;;;11.40;99.90;;;;;;4948400;29;20785;-82
2022/01/18 12:53:03;;;;;;;44.90;22.30;;;11.40;99.90;;;;;;4965521;28;20430;-82
2022/01/18 12:55:32;;;;;;;45.43;21.37;;;11.50;99.90;;;;;;4965141;28;20425;-83
2022/01/18 12:58:09;;;;;;;38.73;19.10;;;11.70;99.90;;;;;;4948434;28;20836;-80
2022/01/18 13:00:42;;;;;;;43.57;21.50;;;12.00;99.90;;;;;;4966179;28;20744;-83
2022/01/18 13:03:08;;;;;;;39.93;20.50;;;12.10;99.90;;;;;;4953671;28;20480;-82
2022/01/18 13:05:42;;;;;;;40.80;19.93;;;12.20;99.90;;;;;;4965853;28;20942;-82
2022/01/18 13:08:10;;;;;;;45.87;21.97;;;12.30;99.90;;;;;;4963936;28;20425;-82
2022/01/18 13:10:36;;;;;;;49.70;29.03;;;12.20;99.90;;;;;;4950828;28;21111;-83
2022/01/18 13:13:03;;;;;;;38.77;19.87;;;12.30;99.90;;;;;;4966725;28;20425;-83
2022/01/18 13:26:50;;;;;;;37.40;20.50;;;11.00;99.90;;;;;;4979406;28;20858;-82
2022/01/18 13:29:20;;;;;;;38.77;18.23;;;11.40;99.90;;;;;;4999878;28;20216;-82
2022/01/18 13:32:16;;;;;;;36.30;19.40;;;11.60;99.90;;;;;;4987215;28;20427;-81
2022/01/18 13:34:43;;;;;;;34.08;19.10;;;11.10;99.90;;;;;;4950608;28;20414;-82
2022/01/18 13:37:30;;;;;;;31.87;18.00;;;10.70;99.90;;;;;;4987372;28;20209;-81
2022/01/18 13:39:59;;;;;;;39.77;17.87;;;11.30;99.90;;;;;;4967226;28;20464;-79
2022/01/18 13:42:31;;;;;;;33.27;17.77;;;9.90;99.90;;;;;;4966831;28;21182;-83
2022/01/18 13:45:19;;;;;;;31.67;19.08;;;10.40;99.90;;;;;;4276983;28;10000964;-79
2022/01/18 13:48:01;;;;;;;37.20;17.70;;;10.30;99.90;;;;;;4960972;28;20692;-81
2022/01/18 13:50:57;;;;;;;42.30;17.67;;;10.30;99.90;;;;;;4973366;28;20280;-83
2022/01/18 13:53:22;;;;;;;37.20;18.27;;;10.30;99.90;;;;;;4975404;28;20473;-81
2022/01/18 13:56:07;;;;;;;36.83;19.93;;;10.30;99.90;;;;;;4973422;28;20457;-81
2022/01/18 13:58:36;;;;;;;36.10;18.85;;;10.20;99.90;;;;;;4971503;28;20468;-83
2022/01/18 14:01:20;;;;;;;43.63;21.98;;;10.40;99.90;;;;;;4973664;28;20304;-83
2022/01/18 14:03:53;;;;;;;39.73;24.23;;;10.10;99.90;;;;;;4983032;28;20221;-83
2022/01/18 14:06:20;;;;;;;45.50;24.13;;;10.10;99.90;;;;;;4971440;28;20429;-83
2022/01/18 14:08:52;;;;;;;49.03;21.73;;;10.00;99.90;;;;;;4988125;28;20598;-85
2022/01/18 14:11:23;;;;;;;49.03;25.10;;;9.90;99.90;;;;;;4973016;28;20222;-83
2022/01/18 14:13:51;;;;;;;42.92;24.38;;;9.90;99.90;;;;;;4971541;28;20472;-83
2022/01/18 14:16:30;;;;;;;45.77;23.50;;;9.80;99.90;;;;;;4955185;28;20197;-83
2022/01/18 14:19:06;;;;;;;48.08;25.08;;;9.80;99.90;;;;;;4958243;28;20471;-82
2022/01/18 14:21:38;;;;;;;49.00;23.58;;;9.60;99.90;;;;;;4974208;28;20193;-83
2022/01/18 14:24:07;;;;;;;43.30;26.13;;;9.60;99.90;;;;;;4961242;28;20214;-82
2022/01/18 14:26:35;;;;;;;34.80;22.30;;;9.70;99.90;;;;;;4969874;28;20453;-82
2022/01/18 14:29:03;;;;;;;41.17;21.77;;;9.80;99.90;;;;;;4964916;28;20236;-83
2022/01/18 14:31:29;;;;;;;32.40;20.27;;;9.90;99.90;;;;;;4975672;28;20201;-83
2022/01/18 14:33:55;;;;;;;32.00;20.70;;;9.80;99.90;;;;;;4968229;28;20561;-82
2022/01/18 14:36:21;;;;;;;32.13;20.93;;;9.70;99.90;;;;;;4978844;28;20448;-83
2022/01/18 14:38:46;;;;;;;40.47;20.23;;;9.90;99.90;;;;;;4976227;28;20492;-82
2022/01/18 14:41:23;;;;;;;41.80;21.80;;;9.90;99.90;;;;;;4979423;28;20277;-82
2022/01/18 14:43:53;;;;;;;36.63;20.48;;;9.80;99.90;;;;;;4966986;28;20712;-82
2022/01/18 14:46:22;;;;;;;36.63;20.73;;;9.80;99.90;;;;;;4971980;28;20719;-82
2022/01/18 14:48:48;;;;;;;31.33;18.10;;;9.80;99.90;;;;;;4964630;28;21358;-82
2022/01/18 14:51:14;;;;;;;34.90;18.97;;;9.80;99.90;;;;;;4974121;28;20484;-84
2022/01/18 14:53:39;;;;;;;32.13;19.17;;;9.80;99.90;;;;;;4963655;28;20190;-83
2022/01/18 14:56:06;;;;;;;38.90;21.00;;;9.80;99.90;;;;;;4977531;28;20222;-83
2022/01/18 14:58:32;;;;;;;29.87;18.63;;;9.80;99.90;;;;;;4965073;28;20170;-83
2022/01/18 15:00:59;;;;;;;38.13;20.85;;;9.80;99.90;;;;;;4980500;28;20449;-83
2022/01/18 15:03:25;;;;;;;35.30;19.25;;;9.70;99.90;;;;;;4966530;28;20263;-84
2022/01/18 15:05:51;;;;;;;38.38;20.92;;;10.90;99.90;;;;;;4983772;28;20316;-84
2022/01/18 15:08:19;;;;;;;30.40;18.83;;;10.00;99.90;;;;;;4968783;28;20260;-83
2022/01/18 15:10:45;;;;;;;31.48;19.90;;;10.50;99.90;;;;;;4966288;28;20212;-84
2022/01/18 15:13:11;;;;;;;31.77;19.27;;;9.50;99.90;;;;;;4985536;28;20209;-81
2022/01/18 15:15:37;;;;;;;33.30;19.13;;;8.80;99.90;;;;;;4983586;28;20433;-82
2022/01/18 15:18:03;;;;;;;29.95;18.08;;;9.60;99.90;;;;;;4988405;28;20165;-84
2022/01/18 15:20:32;;;;;;;32.03;18.07;;;9.50;99.90;;;;;;4963145;28;20197;-85
2022/01/18 15:22:58;;;;;;;33.80;19.27;;;9.50;99.90;;;;;;4952742;28;20990;-83
2022/01/18 15:25:24;;;;;;;31.80;17.23;;;9.40;99.90;;;;;;4969009;28;20243;-81
2022/01/18 15:27:53;;;;;;;26.40;17.73;;;9.30;99.90;;;;;;4970422;28;20225;-81
2022/01/18 15:30:20;;;;;;;26.15;15.13;;;9.10;99.90;;;;;;4986985;28;20244;-81
2022/01/18 15:32:50;;;;;;;27.27;15.85;;;9.40;99.90;;;;;;4971380;28;20216;-84
2022/01/18 15:35:16;;;;;;;17.90;12.20;;;9.30;99.90;;;;;;4986563;28;20177;-81
2022/01/18 15:37:47;;;;;;;24.13;13.70;;;9.30;99.90;;;;;;4969951;28;20705;-82
2022/01/18 15:40:13;;;;;;;22.63;14.02;;;10.40;99.90;;;;;;4968719;28;20421;-83